Terminal Aerodrome Forecast
Issued by NWS

Home | Current Version | Previous Version | Text Only | Print | Product List | Glossary On
Versions: 1 2 3 4 5 6 7 8 9 10 11 12 13 14 15 16
000
FTUS45 KTFX 301132
TAFHLN
TAF
KHLN 301132Z 3012/3112 VRB05KT P6SM BKN150
     FM301600 34006KT P6SM VCSH BKN070
     FM301800 34008KT P6SM VCTS SCT060CB BKN070
      TEMPO 3019/3023 VRB15G35KT 6SM -TSRA BKN040CB
     FM310200 27006KT P6SM SCT070 BKN150=

USA.gov is the U.S. government's official web portal to all federal, state and local government web resources and services.